sensor_id;sensor_type;location;lat;lon;timestamp;pressure;altitude;pressure_sealevel;temperature;humidity
14882;BME280;7533;51.278;12.588;2022-12-10T00:03:42;99182.66;;;22.12;60.22
14882;BME280;7533;51.278;12.588;2022-12-10T00:08:46;99186.75;;;22.16;60.16
14882;BME280;7533;51.278;12.588;2022-12-10T00:13:49;99193.56;;;22.11;60.18
14882;BME280;7533;51.278;12.588;2022-12-10T00:18:53;99198.09;;;22.10;60.51
14882;BME280;7533;51.278;12.588;2022-12-10T00:23:59;99190.97;;;22.09;60.45
14882;BME280;7533;51.278;12.588;2022-12-10T00:29:03;99192.13;;;22.07;60.37
14882;BME280;7533;51.278;12.588;2022-12-10T00:34:09;99190.41;;;22.06;60.59
14882;BME280;7533;51.278;12.588;2022-12-10T00:39:15;99199.19;;;22.08;60.48
14882;BME280;7533;51.278;12.588;2022-12-10T00:44:19;99195.06;;;22.04;60.65
14882;BME280;7533;51.278;12.588;2022-12-10T00:49:22;99196.75;;;22.05;60.49
14882;BME280;7533;51.278;12.588;2022-12-10T00:54:27;99196.22;;;22.01;60.54
14882;BME280;7533;51.278;12.588;2022-12-10T00:59:30;99201.44;;;22.03;60.74
14882;BME280;7533;51.278;12.588;2022-12-10T01:04:32;99209.69;;;22.01;60.72
14882;BME280;7533;51.278;12.588;2022-12-10T01:09:37;99213.63;;;21.97;60.88
14882;BME280;7533;51.278;12.588;2022-12-10T01:14:39;99210.06;;;21.97;60.89
14882;BME280;7533;51.278;12.588;2022-12-10T01:19:43;99213.88;;;21.94;61.04
14882;BME280;7533;51.278;12.588;2022-12-10T01:24:47;99214.47;;;21.98;60.95
14882;BME280;7533;51.278;12.588;2022-12-10T01:29:50;99208.50;;;21.94;61.07
14882;BME280;7533;51.278;12.588;2022-12-10T01:34:53;99211.06;;;21.96;60.95
14882;BME280;7533;51.278;12.588;2022-12-10T01:39:57;99216.31;;;21.97;61.08
14882;BME280;7533;51.278;12.588;2022-12-10T01:45:07;99219.56;;;21.91;60.91
14882;BME280;7533;51.278;12.588;2022-12-10T01:50:11;99217.72;;;21.91;61.37
14882;BME280;7533;51.278;12.588;2022-12-10T01:55:39;99212.47;;;21.90;61.26
14882;BME280;7533;51.278;12.588;2022-12-10T02:00:51;99215.16;;;21.90;61.23
14882;BME280;7533;51.278;12.588;2022-12-10T02:06:04;99207.94;;;21.90;61.31
14882;BME280;7533;51.278;12.588;2022-12-10T02:11:14;99212.31;;;21.91;61.46
14882;BME280;7533;51.278;12.588;2022-12-10T02:16:24;99218.09;;;21.87;61.38
14882;BME280;7533;51.278;12.588;2022-12-10T02:21:34;99210.16;;;21.85;61.52
14882;BME280;7533;51.278;12.588;2022-12-10T02:26:46;99207.47;;;21.85;61.53
14882;BME280;7533;51.278;12.588;2022-12-10T02:31:56;99202.78;;;21.87;61.39
14882;BME280;7533;51.278;12.588;2022-12-10T02:37:07;99205.63;;;21.86;61.69
14882;BME280;7533;51.278;12.588;2022-12-10T02:42:13;99204.50;;;21.88;61.64
14882;BME280;7533;51.278;12.588;2022-12-10T02:47:19;99207.78;;;21.92;61.75
14882;BME280;7533;51.278;12.588;2022-12-10T02:52:24;99211.91;;;21.96;61.72
14882;BME280;7533;51.278;12.588;2022-12-10T02:57:32;99216.16;;;21.99;61.72
14882;BME280;7533;51.278;12.588;2022-12-10T03:02:51;99216.47;;;22.05;61.74
14882;BME280;7533;51.278;12.588;2022-12-10T03:08:04;99223.31;;;22.09;61.61
14882;BME280;7533;51.278;12.588;2022-12-10T03:13:11;99224.78;;;22.13;61.44
14882;BME280;7533;51.278;12.588;2022-12-10T03:18:19;99230.16;;;22.13;61.63
14882;BME280;7533;51.278;12.588;2022-12-10T03:23:23;99229.19;;;22.14;61.79
14882;BME280;7533;51.278;12.588;2022-12-10T03:28:26;99234.31;;;22.17;61.67
14882;BME280;7533;51.278;12.588;2022-12-10T03:33:31;99220.69;;;22.19;61.69
14882;BME280;7533;51.278;12.588;2022-12-10T03:38:36;99218.59;;;22.23;61.70
14882;BME280;7533;51.278;12.588;2022-12-10T03:43:53;99226.22;;;22.17;61.80
14882;BME280;7533;51.278;12.588;2022-12-10T03:48:58;99218.69;;;22.21;61.72
14882;BME280;7533;51.278;12.588;2022-12-10T03:54:01;99228.22;;;22.25;61.85
14882;BME280;7533;51.278;12.588;2022-12-10T03:59:04;99223.44;;;22.29;61.73
14882;BME280;7533;51.278;12.588;2022-12-10T04:04:09;99231.81;;;22.35;61.43
14882;BME280;7533;51.278;12.588;2022-12-10T04:09:13;99217.75;;;22.32;61.59
14882;BME280;7533;51.278;12.588;2022-12-10T04:14:16;99228.53;;;22.32;61.72
14882;BME280;7533;51.278;12.588;2022-12-10T04:19:38;99234.75;;;22.32;61.61
14882;BME280;7533;51.278;12.588;2022-12-10T04:24:41;99227.81;;;22.30;61.69
14882;BME280;7533;51.278;12.588;2022-12-10T04:30:02;99228.97;;;22.37;61.79
14882;BME280;7533;51.278;12.588;2022-12-10T04:35:07;99225.56;;;22.35;61.61
14882;BME280;7533;51.278;12.588;2022-12-10T04:40:11;99213.78;;;22.36;61.67
14882;BME280;7533;51.278;12.588;2022-12-10T04:45:14;99212.53;;;22.40;61.75
14882;BME280;7533;51.278;12.588;2022-12-10T04:50:18;99215.34;;;22.38;61.67
14882;BME280;7533;51.278;12.588;2022-12-10T04:55:21;99213.78;;;22.36;61.81
14882;BME280;7533;51.278;12.588;2022-12-10T05:00:24;99214.03;;;22.33;61.93
14882;BME280;7533;51.278;12.588;2022-12-10T05:05:28;99221.44;;;22.31;61.88
14882;BME280;7533;51.278;12.588;2022-12-10T05:10:33;99208.09;;;22.29;61.78
14882;BME280;7533;51.278;12.588;2022-12-10T05:15:37;99208.34;;;22.26;61.86
14882;BME280;7533;51.278;12.588;2022-12-10T05:20:42;99216.44;;;22.26;61.79
14882;BME280;7533;51.278;12.588;2022-12-10T05:25:45;99218.16;;;22.27;61.77
14882;BME280;7533;51.278;12.588;2022-12-10T05:30:55;99214.59;;;22.27;61.77
14882;BME280;7533;51.278;12.588;2022-12-10T05:36:01;99224.81;;;22.23;62.00
14882;BME280;7533;51.278;12.588;2022-12-10T05:41:05;99227.19;;;22.16;62.13
14882;BME280;7533;51.278;12.588;2022-12-10T05:46:11;99237.66;;;22.10;62.42
14882;BME280;7533;51.278;12.588;2022-12-10T05:51:17;99238.47;;;22.01;62.79
14882;BME280;7533;51.278;12.588;2022-12-10T05:56:22;99240.41;;;21.89;63.05
14882;BME280;7533;51.278;12.588;2022-12-10T06:01:27;99229.72;;;21.78;63.41
14882;BME280;7533;51.278;12.588;2022-12-10T06:06:35;99230.75;;;21.65;63.91
14882;BME280;7533;51.278;12.588;2022-12-10T06:11:38;99239.66;;;21.56;64.06
14882;BME280;7533;51.278;12.588;2022-12-10T06:16:41;99240.28;;;21.49;64.49
14882;BME280;7533;51.278;12.588;2022-12-10T06:21:45;99245.34;;;21.42;64.72
14882;BME280;7533;51.278;12.588;2022-12-10T06:26:48;99257.63;;;21.35;64.83
14882;BME280;7533;51.278;12.588;2022-12-10T06:31:57;99262.53;;;21.30;65.29
14882;BME280;7533;51.278;12.588;2022-12-10T06:37:01;99271.81;;;21.26;65.32
14882;BME280;7533;51.278;12.588;2022-12-10T06:42:04;99265.13;;;21.20;65.46
14882;BME280;7533;51.278;12.588;2022-12-10T06:47:07;99280.94;;;21.13;65.71
14882;BME280;7533;51.278;12.588;2022-12-10T06:52:12;99278.75;;;21.07;65.90
14882;BME280;7533;51.278;12.588;2022-12-10T06:57:15;99281.69;;;21.04;65.73
14882;BME280;7533;51.278;12.588;2022-12-10T07:02:18;99286.63;;;20.99;66.43
14882;BME280;7533;51.278;12.588;2022-12-10T07:07:22;99298.63;;;20.95;66.51
14882;BME280;7533;51.278;12.588;2022-12-10T07:12:25;99303.66;;;20.89;66.68
14882;BME280;7533;51.278;12.588;2022-12-10T07:17:28;99296.66;;;20.86;66.73
14882;BME280;7533;51.278;12.588;2022-12-10T07:22:32;99302.44;;;20.81;66.52
14882;BME280;7533;51.278;12.588;2022-12-10T07:27:35;99306.47;;;20.76;66.56
14882;BME280;7533;51.278;12.588;2022-12-10T07:32:38;99308.72;;;20.71;66.90
14882;BME280;7533;51.278;12.588;2022-12-10T07:37:43;99301.88;;;20.67;66.71
14882;BME280;7533;51.278;12.588;2022-12-10T07:42:45;99309.31;;;20.63;66.68
14882;BME280;7533;51.278;12.588;2022-12-10T07:47:48;99316.91;;;20.58;66.91
14882;BME280;7533;51.278;12.588;2022-12-10T07:52:52;99319.09;;;20.53;66.91
14882;BME280;7533;51.278;12.588;2022-12-10T07:57:55;99315.91;;;20.48;67.12
14882;BME280;7533;51.278;12.588;2022-12-10T08:02:58;99319.69;;;20.45;66.87
14882;BME280;7533;51.278;12.588;2022-12-10T08:08:03;99327.00;;;18.31;45.81
14882;BME280;7533;51.278;12.588;2022-12-10T08:13:08;99334.78;;;17.17;45.93
14882;BME280;7533;51.278;12.588;2022-12-10T08:18:11;99342.84;;;18.46;49.13
14882;BME280;7533;51.278;12.588;2022-12-10T08:23:15;99334.75;;;19.09;50.39
14882;BME280;7533;51.278;12.588;2022-12-10T08:28:18;99330.38;;;19.43;51.21
14882;BME280;7533;51.278;12.588;2022-12-10T08:33:21;99342.66;;;19.69;51.88
14882;BME280;7533;51.278;12.588;2022-12-10T08:38:26;99337.59;;;19.89;52.87
14882;BME280;7533;51.278;12.588;2022-12-10T08:43:30;99339.09;;;20.04;53.86
14882;BME280;7533;51.278;12.588;2022-12-10T08:48:34;99343.63;;;20.15;54.69
14882;BME280;7533;51.278;12.588;2022-12-10T08:53:38;99348.25;;;20.24;55.36
14882;BME280;7533;51.278;12.588;2022-12-10T08:58:42;99351.22;;;20.32;55.93
14882;BME280;7533;51.278;12.588;2022-12-10T09:03:45;99358.88;;;20.37;56.39
14882;BME280;7533;51.278;12.588;2022-12-10T09:08:49;99359.16;;;20.45;56.92
14882;BME280;7533;51.278;12.588;2022-12-10T09:13:53;99359.91;;;20.47;57.22
14882;BME280;7533;51.278;12.588;2022-12-10T09:18:55;99368.72;;;20.49;57.56
14882;BME280;7533;51.278;12.588;2022-12-10T09:24:00;99367.75;;;20.50;57.77
14882;BME280;7533;51.278;12.588;2022-12-10T09:29:03;99372.25;;;20.49;57.93
14882;BME280;7533;51.278;12.588;2022-12-10T09:34:06;99366.03;;;20.49;57.90
14882;BME280;7533;51.278;12.588;2022-12-10T09:39:10;99379.47;;;20.49;57.80
14882;BME280;7533;51.278;12.588;2022-12-10T09:44:31;99369.56;;;20.49;57.63
14882;BME280;7533;51.278;12.588;2022-12-10T09:49:47;99368.72;;;20.49;57.67
14882;BME280;7533;51.278;12.588;2022-12-10T09:54:58;99358.81;;;20.49;57.40
14882;BME280;7533;51.278;12.588;2022-12-10T10:00:05;99355.28;;;20.49;57.39
14882;BME280;7533;51.278;12.588;2022-12-10T10:05:19;99360.53;;;20.50;57.19
14882;BME280;7533;51.278;12.588;2022-12-10T10:10:27;99360.28;;;20.53;56.34
14882;BME280;7533;51.278;12.588;2022-12-10T10:15:33;99355.28;;;20.60;56.44
14882;BME280;7533;51.278;12.588;2022-12-10T10:20:37;99356.22;;;20.59;55.76
14882;BME280;7533;51.278;12.588;2022-12-10T10:25:41;99348.16;;;20.59;55.58
14882;BME280;7533;51.278;12.588;2022-12-10T10:30:44;99343.91;;;20.56;55.93
14882;BME280;7533;51.278;12.588;2022-12-10T10:35:49;99352.81;;;20.57;56.04
14882;BME280;7533;51.278;12.588;2022-12-10T10:40:55;99363.72;;;20.55;55.92
14882;BME280;7533;51.278;12.588;2022-12-10T10:46:01;99365.41;;;20.56;55.74
14882;BME280;7533;51.278;12.588;2022-12-10T10:51:08;99352.09;;;20.55;55.41
14882;BME280;7533;51.278;12.588;2022-12-10T10:56:15;99353.94;;;20.54;55.20
14882;BME280;7533;51.278;12.588;2022-12-10T11:01:19;99351.25;;;20.54;55.11
14882;BME280;7533;51.278;12.588;2022-12-10T11:06:23;99352.34;;;20.52;54.80
14882;BME280;7533;51.278;12.588;2022-12-10T11:11:33;99357.97;;;20.49;54.69
14882;BME280;7533;51.278;12.588;2022-12-10T11:16:37;99353.81;;;20.56;54.89
14882;BME280;7533;51.278;12.588;2022-12-10T11:21:40;99352.59;;;20.60;55.25
14882;BME280;7533;51.278;12.588;2022-12-10T11:26:52;99352.47;;;20.62;55.55
14882;BME280;7533;51.278;12.588;2022-12-10T11:32:11;99354.44;;;20.59;55.65
14882;BME280;7533;51.278;12.588;2022-12-10T11:37:24;99361.38;;;20.62;56.09
14882;BME280;7533;51.278;12.588;2022-12-10T11:42:46;99360.25;;;20.65;56.49
14882;BME280;7533;51.278;12.588;2022-12-10T11:48:05;99362.72;;;20.68;56.60
14882;BME280;7533;51.278;12.588;2022-12-10T11:53:24;99355.38;;;20.70;56.62
14882;BME280;7533;51.278;12.588;2022-12-10T11:58:48;99358.81;;;20.72;57.11
14882;BME280;7533;51.278;12.588;2022-12-10T12:04:06;99362.09;;;20.75;57.50
14882;BME280;7533;51.278;12.588;2022-12-10T12:09:22;99352.09;;;20.77;58.16
14882;BME280;7533;51.278;12.588;2022-12-10T12:14:31;99352.94;;;20.78;58.47
14882;BME280;7533;51.278;12.588;2022-12-10T12:19:38;99348.91;;;20.61;52.64
14882;BME280;7533;51.278;12.588;2022-12-10T12:24:42;99363.69;;;20.44;49.46
14882;BME280;7533;51.278;12.588;2022-12-10T12:29:57;99361.94;;;20.10;47.79
14882;BME280;7533;51.278;12.588;2022-12-10T12:35:07;99368.91;;;20.12;48.92
14882;BME280;7533;51.278;12.588;2022-12-10T12:40:15;99363.91;;;20.30;50.21
14882;BME280;7533;51.278;12.588;2022-12-10T12:45:31;99367.56;;;20.40;51.36
14882;BME280;7533;51.278;12.588;2022-12-10T12:50:42;99372.25;;;20.49;52.07
14882;BME280;7533;51.278;12.588;2022-12-10T12:55:56;99373.59;;;20.55;52.83
14882;BME280;7533;51.278;12.588;2022-12-10T13:01:12;99373.97;;;20.62;53.20
14882;BME280;7533;51.278;12.588;2022-12-10T13:06:20;99368.09;;;20.68;53.63
14882;BME280;7533;51.278;12.588;2022-12-10T13:11:34;99377.72;;;20.70;54.15
14882;BME280;7533;51.278;12.588;2022-12-10T13:16:49;99375.78;;;20.72;54.61
14882;BME280;7533;51.278;12.588;2022-12-10T13:22:04;99389.25;;;20.72;54.84
14882;BME280;7533;51.278;12.588;2022-12-10T13:27:16;99382.25;;;20.70;55.35
14882;BME280;7533;51.278;12.588;2022-12-10T13:32:23;99389.59;;;20.68;55.86
14882;BME280;7533;51.278;12.588;2022-12-10T13:37:30;99394.25;;;20.66;56.34
14882;BME280;7533;51.278;12.588;2022-12-10T13:42:35;99400.72;;;20.63;56.79
14882;BME280;7533;51.278;12.588;2022-12-10T13:48:25;99405.59;;;20.58;57.21
14882;BME280;7533;51.278;12.588;2022-12-10T13:53:40;99408.56;;;20.55;57.47
14882;BME280;7533;51.278;12.588;2022-12-10T13:58:55;99406.94;;;20.52;57.75
14882;BME280;7533;51.278;12.588;2022-12-10T14:04:20;99409.13;;;20.47;58.35
14882;BME280;7533;51.278;12.588;2022-12-10T14:09:28;99416.97;;;20.50;58.45
14882;BME280;7533;51.278;12.588;2022-12-10T14:14:38;99421.16;;;20.54;58.39
14882;BME280;7533;51.278;12.588;2022-12-10T14:19:45;99416.50;;;20.56;58.34
14882;BME280;7533;51.278;12.588;2022-12-10T14:24:50;99422.38;;;20.62;58.59
14882;BME280;7533;51.278;12.588;2022-12-10T14:29:58;99411.59;;;20.62;58.60
14882;BME280;7533;51.278;12.588;2022-12-10T14:35:06;99423.44;;;20.59;57.97
14882;BME280;7533;51.278;12.588;2022-12-10T14:40:18;99425.28;;;20.58;57.53
14882;BME280;7533;51.278;12.588;2022-12-10T14:45:22;99431.41;;;20.60;57.53
14882;BME280;7533;51.278;12.588;2022-12-10T14:50:28;99427.72;;;20.62;57.70
14882;BME280;7533;51.278;12.588;2022-12-10T14:55:34;99434.09;;;20.60;57.72
14882;BME280;7533;51.278;12.588;2022-12-10T15:00:39;99433.34;;;20.58;57.90
14882;BME280;7533;51.278;12.588;2022-12-10T15:05:54;99429.94;;;20.56;58.13
14882;BME280;7533;51.278;12.588;2022-12-10T15:11:01;99435.94;;;20.60;58.33
14882;BME280;7533;51.278;12.588;2022-12-10T15:16:06;99438.84;;;20.68;58.34
14882;BME280;7533;51.278;12.588;2022-12-10T15:21:13;99440.81;;;20.77;58.36
14882;BME280;7533;51.278;12.588;2022-12-10T15:26:20;99444.59;;;20.86;58.34
14882;BME280;7533;51.278;12.588;2022-12-10T15:31:30;99454.63;;;20.95;58.37
14882;BME280;7533;51.278;12.588;2022-12-10T15:36:37;99461.69;;;21.07;57.92
14882;BME280;7533;51.278;12.588;2022-12-10T15:41:44;99463.16;;;21.23;58.04
14882;BME280;7533;51.278;12.588;2022-12-10T15:46:48;99473.94;;;21.34;57.77
14882;BME280;7533;51.278;12.588;2022-12-10T15:51:52;99475.63;;;21.46;57.27
14882;BME280;7533;51.278;12.588;2022-12-10T15:56:55;99480.38;;;21.54;57.29
14882;BME280;7533;51.278;12.588;2022-12-10T16:01:59;99487.69;;;21.63;57.04
14882;BME280;7533;51.278;12.588;2022-12-10T16:07:07;99485.63;;;21.67;57.03
14882;BME280;7533;51.278;12.588;2022-12-10T16:12:11;99487.91;;;21.71;57.05
14882;BME280;7533;51.278;12.588;2022-12-10T16:17:14;99494.88;;;21.74;56.95
14882;BME280;7533;51.278;12.588;2022-12-10T16:22:18;99499.28;;;21.75;56.84
14882;BME280;7533;51.278;12.588;2022-12-10T16:27:21;99502.84;;;21.75;56.86
14882;BME280;7533;51.278;12.588;2022-12-10T16:32:24;99502.69;;;21.77;56.91
14882;BME280;7533;51.278;12.588;2022-12-10T16:37:28;99507.13;;;21.78;56.78
14882;BME280;7533;51.278;12.588;2022-12-10T16:42:31;99512.75;;;21.75;56.16
14882;BME280;7533;51.278;12.588;2022-12-10T16:47:34;99513.59;;;21.75;56.69
14882;BME280;7533;51.278;12.588;2022-12-10T16:52:39;99512.63;;;21.76;57.16
14882;BME280;7533;51.278;12.588;2022-12-10T16:57:42;99506.84;;;21.81;57.03
14882;BME280;7533;51.278;12.588;2022-12-10T17:02:47;99506.34;;;21.87;56.97
14882;BME280;7533;51.278;12.588;2022-12-10T17:07:52;99517.88;;;21.89;56.62
14882;BME280;7533;51.278;12.588;2022-12-10T17:12:55;99513.56;;;21.86;56.54
14882;BME280;7533;51.278;12.588;2022-12-10T17:17:59;99510.16;;;21.84;56.50
14882;BME280;7533;51.278;12.588;2022-12-10T17:23:04;99501.59;;;21.79;56.45
14882;BME280;7533;51.278;12.588;2022-12-10T17:28:11;99501.59;;;21.79;57.14
14882;BME280;7533;51.278;12.588;2022-12-10T17:33:17;99501.59;;;21.79;58.25
14882;BME280;7533;51.278;12.588;2022-12-10T17:38:23;99506.00;;;21.80;59.31
14882;BME280;7533;51.278;12.588;2022-12-10T17:43:26;99512.25;;;21.81;60.37
14882;BME280;7533;51.278;12.588;2022-12-10T17:48:29;99506.84;;;21.81;60.81
14882;BME280;7533;51.278;12.588;2022-12-10T17:53:33;99521.19;;;21.81;61.05
14882;BME280;7533;51.278;12.588;2022-12-10T17:58:36;99516.25;;;21.86;61.14
14882;BME280;7533;51.278;12.588;2022-12-10T18:03:40;99523.97;;;21.91;61.00
14882;BME280;7533;51.278;12.588;2022-12-10T18:08:45;99527.38;;;21.93;60.26
14882;BME280;7533;51.278;12.588;2022-12-10T18:13:49;99519.06;;;21.96;59.94
14882;BME280;7533;51.278;12.588;2022-12-10T18:18:51;99528.00;;;21.97;59.61
14882;BME280;7533;51.278;12.588;2022-12-10T18:23:56;99535.94;;;21.98;59.49
14882;BME280;7533;51.278;12.588;2022-12-10T18:29:00;99542.94;;;22.01;59.12
14882;BME280;7533;51.278;12.588;2022-12-10T18:34:05;99537.66;;;21.99;58.94
14882;BME280;7533;51.278;12.588;2022-12-10T18:39:16;99524.91;;;22.01;58.77
14882;BME280;7533;51.278;12.588;2022-12-10T18:44:22;99534.84;;;22.01;58.60
14882;BME280;7533;51.278;12.588;2022-12-10T18:49:25;99529.69;;;21.98;58.33
14882;BME280;7533;51.278;12.588;2022-12-10T18:54:30;99537.53;;;22.01;58.14
14882;BME280;7533;51.278;12.588;2022-12-10T18:59:33;99534.00;;;22.00;58.10
14882;BME280;7533;51.278;12.588;2022-12-10T19:04:36;99530.31;;;22.01;57.98
14882;BME280;7533;51.278;12.588;2022-12-10T19:09:40;99533.84;;;22.02;57.56
14882;BME280;7533;51.278;12.588;2022-12-10T19:14:43;99527.25;;;22.06;57.90
14882;BME280;7533;51.278;12.588;2022-12-10T19:19:46;99533.19;;;22.09;58.10
14882;BME280;7533;51.278;12.588;2022-12-10T19:24:50;99533.59;;;22.05;58.09
14882;BME280;7533;51.278;12.588;2022-12-10T19:29:53;99538.59;;;22.09;57.98
14882;BME280;7533;51.278;12.588;2022-12-10T19:34:56;99547.31;;;22.02;58.18
14882;BME280;7533;51.278;12.588;2022-12-10T19:40:00;99545.22;;;22.05;58.16
14882;BME280;7533;51.278;12.588;2022-12-10T19:45:04;99547.91;;;22.05;58.30
14882;BME280;7533;51.278;12.588;2022-12-10T19:50:12;99555.03;;;22.06;58.25
14882;BME280;7533;51.278;12.588;2022-12-10T19:55:19;99557.72;;;22.06;58.25
14882;BME280;7533;51.278;12.588;2022-12-10T20:00:28;99564.97;;;22.06;58.10
14882;BME280;7533;51.278;12.588;2022-12-10T20:05:33;99560.66;;;22.03;58.25
14882;BME280;7533;51.278;12.588;2022-12-10T20:10:37;99555.88;;;22.07;58.34
14882;BME280;7533;51.278;12.588;2022-12-10T20:15:48;99556.75;;;22.07;58.36
14882;BME280;7533;51.278;12.588;2022-12-10T20:20:51;99552.22;;;22.08;58.38
14882;BME280;7533;51.278;12.588;2022-12-10T20:25:58;99566.78;;;22.05;58.34
14882;BME280;7533;51.278;12.588;2022-12-10T20:31:03;99561.88;;;22.10;58.33
14882;BME280;7533;51.278;12.588;2022-12-10T20:36:10;99566.06;;;22.14;58.18
14882;BME280;7533;51.278;12.588;2022-12-10T20:46:21;99565.06;;;22.04;57.98
14882;BME280;7533;51.278;12.588;2022-12-10T20:51:24;99560.16;;;22.09;58.23
14882;BME280;7533;51.278;12.588;2022-12-10T20:56:28;99559.09;;;22.12;58.12
14882;BME280;7533;51.278;12.588;2022-12-10T21:01:31;99551.59;;;22.15;58.39
14882;BME280;7533;51.278;12.588;2022-12-10T21:06:34;99559.94;;;22.12;58.24
14882;BME280;7533;51.278;12.588;2022-12-10T21:11:39;99559.81;;;22.14;58.44
14882;BME280;7533;51.278;12.588;2022-12-10T21:16:42;99561.28;;;22.18;58.16
14882;BME280;7533;51.278;12.588;2022-12-10T21:21:45;99551.00;;;22.12;58.22
14882;BME280;7533;51.278;12.588;2022-12-10T21:26:49;99547.31;;;22.13;57.48
14882;BME280;7533;51.278;12.588;2022-12-10T21:31:52;99549.50;;;22.08;57.82
14882;BME280;7533;51.278;12.588;2022-12-10T21:36:55;99558.09;;;22.13;58.22
14882;BME280;7533;51.278;12.588;2022-12-10T21:41:59;99549.88;;;22.14;58.34
14882;BME280;7533;51.278;12.588;2022-12-10T21:47:19;99544.97;;;22.20;58.21
14882;BME280;7533;51.278;12.588;2022-12-10T21:52:22;99549.63;;;22.17;58.48
14882;BME280;7533;51.278;12.588;2022-12-10T21:57:26;99548.50;;;22.20;58.34
14882;BME280;7533;51.278;12.588;2022-12-10T22:02:29;99547.53;;;22.21;58.30
14882;BME280;7533;51.278;12.588;2022-12-10T22:07:33;99540.41;;;22.20;58.54
14882;BME280;7533;51.278;12.588;2022-12-10T22:12:38;99536.88;;;22.20;58.45
14882;BME280;7533;51.278;12.588;2022-12-10T22:17:41;99544.56;;;22.24;58.44
14882;BME280;7533;51.278;12.588;2022-12-10T22:22:44;99549.34;;;22.21;58.65
14882;BME280;7533;51.278;12.588;2022-12-10T22:27:48;99544.09;;;22.19;58.66
14882;BME280;7533;51.278;12.588;2022-12-10T22:32:51;99534.19;;;22.20;58.56
14882;BME280;7533;51.278;12.588;2022-12-10T22:37:54;99540.56;;;22.18;58.56
14882;BME280;7533;51.278;12.588;2022-12-10T22:42:58;99536.16;;;22.17;58.59
14882;BME280;7533;51.278;12.588;2022-12-10T22:48:22;99540.41;;;22.20;58.68
14882;BME280;7533;51.278;12.588;2022-12-10T22:53:24;99542.97;;;22.22;58.58
14882;BME280;7533;51.278;12.588;2022-12-10T22:58:29;99542.97;;;22.22;58.58
14882;BME280;7533;51.278;12.588;2022-12-10T23:03:32;99552.34;;;22.17;58.68
14882;BME280;7533;51.278;12.588;2022-12-10T23:08:35;99556.47;;;22.22;58.72
14882;BME280;7533;51.278;12.588;2022-12-10T23:13:39;99554.03;;;22.18;58.64
14882;BME280;7533;51.278;12.588;2022-12-10T23:18:44;99541.13;;;22.22;58.83
14882;BME280;7533;51.278;12.588;2022-12-10T23:23:51;99537.88;;;22.18;58.73
14882;BME280;7533;51.278;12.588;2022-12-10T23:28:55;99538.84;;;22.17;58.85
14882;BME280;7533;51.278;12.588;2022-12-10T23:33:58;99547.19;;;22.14;58.98
14882;BME280;7533;51.278;12.588;2022-12-10T23:39:01;99539.09;;;22.14;59.07
14882;BME280;7533;51.278;12.588;2022-12-10T23:44:05;99536.88;;;22.20;59.00
14882;BME280;7533;51.278;12.588;2022-12-10T23:49:09;99528.31;;;22.14;58.86
14882;BME280;7533;51.278;12.588;2022-12-10T23:54:12;99527.09;;;22.18;59.00
14882;BME280;7533;51.278;12.588;2022-12-10T23:59:17;99530.78;;;22.17;58.86
